Time;durP1;ratioP1;P1;durP2;ratioP2;P2;SDS_P1;SDS_P2;PMS_P1;PMS_P2;Temp;Humidity;BMP_temperature;BMP_pressure;BME280_temperature;BME280_humidity;BME280_pressure;Samples;Min_cycle;Max_cycle;Signal;HPM_P1;HPM_P2
2022/04/08 00:01:59;;;;;;;4.40;2.83;;;;;6.20;94921.00;;;;5106863;28;20199;-69
2022/04/08 00:04:30;;;;;;;10.07;2.90;;;;;6.30;94928.00;;;;5105297;28;20205;-70
2022/04/08 00:06:59;;;;;;;3.57;2.60;;;;;6.40;94938.00;;;;5088918;28;20199;-70
2022/04/08 00:09:28;;;;;;;2.57;2.37;;;;;6.00;94951.00;;;;5102849;28;20222;-69
2022/04/08 00:11:57;;;;;;;3.70;2.50;;;;;6.10;94967.00;;;;5104855;28;20218;-69
2022/04/08 00:14:26;;;;;;;4.70;2.50;;;;;6.00;94962.00;;;;5114268;28;20315;-70
2022/04/08 00:16:55;;;;;;;3.27;2.60;;;;;6.10;94979.00;;;;5088433;28;20257;-70
2022/04/08 00:19:25;;;;;;;2.70;2.47;;;;;6.20;94973.00;;;;5102082;28;20206;-69
2022/04/08 00:21:54;;;;;;;4.70;2.63;;;;;6.10;94975.00;;;;5109520;28;20202;-69
2022/04/08 00:24:23;;;;;;;2.97;2.67;;;;;6.10;94970.00;;;;5109450;28;20230;-69
2022/04/08 00:26:51;;;;;;;2.90;2.70;;;;;6.10;94971.00;;;;5109219;28;20610;-69
2022/04/08 00:29:20;;;;;;;2.63;2.40;;;;;6.00;94966.00;;;;5112641;28;20205;-69
2022/04/08 00:31:57;;;;;;;2.57;2.37;;;;;6.30;94962.00;;;;5114109;27;20228;-69
2022/04/08 00:34:27;;;;;;;4.73;2.80;;;;;6.30;94942.00;;;;5094682;27;20631;-69
2022/04/08 00:36:57;;;;;;;3.43;2.63;;;;;6.30;94956.00;;;;5092280;28;20211;-69
2022/04/08 00:39:26;;;;;;;2.50;2.30;;;;;6.40;94955.00;;;;5092431;28;20229;-69
2022/04/08 00:41:55;;;;;;;3.30;2.70;;;;;6.40;94947.00;;;;5091965;28;20219;-69
2022/04/08 00:44:24;;;;;;;2.73;2.50;;;;;6.40;94935.00;;;;5091998;28;20252;-69
2022/04/08 00:46:53;;;;;;;2.90;2.63;;;;;6.40;94945.00;;;;5091829;28;20195;-69
2022/04/08 00:49:22;;;;;;;2.93;2.60;;;;;6.10;94954.00;;;;5092161;28;20195;-69
2022/04/08 00:51:53;;;;;;;3.23;2.77;;;;;6.00;94952.00;;;;5092429;28;20203;-69
2022/04/08 00:54:22;;;;;;;3.17;2.63;;;;;5.60;94950.00;;;;5091661;28;20261;-69
2022/04/08 00:56:51;;;;;;;4.90;3.33;;;;;5.60;94957.00;;;;5090600;28;20219;-69
2022/04/08 00:59:20;;;;;;;4.20;3.03;;;;;5.50;94959.00;;;;5091131;28;20191;-70
2022/04/08 01:01:49;;;;;;;3.57;2.97;;;;;5.60;94961.00;;;;5091715;28;20211;-69
2022/04/08 01:04:21;;;;;;;3.80;3.37;;;;;5.50;94957.00;;;;5092000;28;20233;-69
2022/04/08 01:06:49;;;;;;;3.57;3.03;;;;;5.40;94958.00;;;;5091761;28;20191;-69
2022/04/08 01:09:21;;;;;;;4.83;2.87;;;;;5.20;94959.00;;;;5105459;28;20467;-69
2022/04/08 01:11:50;;;;;;;2.67;2.40;;;;;5.40;94962.00;;;;5103670;28;20190;-69
2022/04/08 01:14:19;;;;;;;8.63;3.27;;;;;5.40;94968.00;;;;5112009;28;20229;-69
2022/04/08 01:16:48;;;;;;;3.37;2.80;;;;;5.20;94972.00;;;;5111784;28;20795;-69
2022/04/08 01:19:17;;;;;;;5.27;3.80;;;;;5.30;94984.00;;;;5109039;28;20955;-69
2022/04/08 01:21:45;;;;;;;3.43;3.13;;;;;5.40;95003.00;;;;5091921;28;20429;-69
2022/04/08 01:24:15;;;;;;;3.13;2.77;;;;;4.90;95015.00;;;;5091336;28;20429;-69
2022/04/08 01:26:45;;;;;;;4.73;3.47;;;;;5.10;95014.00;;;;5091250;28;20437;-70
2022/04/08 01:29:15;;;;;;;4.67;4.27;;;;;5.40;95025.00;;;;5096402;28;20468;-69
2022/04/08 01:31:45;;;;;;;4.57;2.80;;;;;5.70;95022.00;;;;5111694;28;20433;-69
2022/04/08 01:34:14;;;;;;;3.47;2.90;;;;;5.40;95008.00;;;;5111300;28;20444;-70
2022/04/08 01:36:43;;;;;;;3.87;3.57;;;;;5.50;95010.00;;;;5109165;28;20201;-69
2022/04/08 01:39:12;;;;;;;3.40;2.77;;;;;5.30;95028.00;;;;5106706;27;20443;-70
2022/04/08 01:41:41;;;;;;;3.50;3.20;;;;;5.20;95036.00;;;;5111301;28;20955;-69
2022/04/08 01:44:11;;;;;;;4.67;3.77;;;;;4.60;95048.00;;;;5111589;28;20198;-70
2022/04/08 01:46:40;;;;;;;3.80;3.50;;;;;4.80;95064.00;;;;5111485;28;20207;-69
2022/04/08 01:49:09;;;;;;;3.97;3.57;;;;;4.90;95053.00;;;;5110875;28;20801;-69
2022/04/08 01:51:38;;;;;;;4.30;3.90;;;;;5.20;95057.00;;;;5111602;28;20436;-70
2022/04/08 01:54:07;;;;;;;3.97;3.37;;;;;5.40;95040.00;;;;5111405;27;20457;-70
2022/04/08 01:56:36;;;;;;;3.77;3.43;;;;;5.40;95049.00;;;;5111327;28;20432;-70
2022/04/08 01:59:04;;;;;;;4.83;3.70;;;;;5.00;95054.00;;;;5110408;28;20476;-69
2022/04/08 02:01:35;;;;;;;3.77;3.40;;;;;4.80;95059.00;;;;5111596;28;20497;-69
2022/04/08 02:04:04;;;;;;;4.67;4.00;;;;;4.80;95075.00;;;;5111075;28;20497;-69
2022/04/08 02:06:34;;;;;;;4.10;3.70;;;;;5.30;95080.00;;;;5110941;28;20947;-69
2022/04/08 02:09:03;;;;;;;5.47;3.53;;;;;5.30;95090.00;;;;5110584;28;20432;-69
2022/04/08 02:11:32;;;;;;;4.63;3.57;;;;;5.40;95067.00;;;;5110864;28;20460;-70
2022/04/08 02:14:01;;;;;;;6.27;3.73;;;;;5.30;95083.00;;;;5110941;28;20433;-69
2022/04/08 02:16:30;;;;;;;4.30;3.90;;;;;5.50;95052.00;;;;5110944;28;20467;-69
2022/04/08 02:19:01;;;;;;;4.03;3.67;;;;;5.20;95089.00;;;;5110108;28;20461;-69
2022/04/08 02:21:30;;;;;;;4.37;3.17;;;;;5.10;95082.00;;;;5097996;28;20452;-69
2022/04/08 02:23:59;;;;;;;3.80;3.37;;;;;4.40;95081.00;;;;5110803;28;20439;-70
2022/04/08 02:26:28;;;;;;;4.07;3.67;;;;;4.80;95081.00;;;;5110785;28;20432;-69
2022/04/08 02:28:57;;;;;;;3.67;3.13;;;;;5.10;95090.00;;;;5110207;28;20435;-69
2022/04/08 02:31:26;;;;;;;3.50;2.93;;;;;5.20;95110.00;;;;5110652;28;20543;-70
2022/04/08 02:33:55;;;;;;;4.03;3.73;;;;;5.20;95117.00;;;;5094372;28;20932;-70
2022/04/08 02:36:25;;;;;;;4.40;4.00;;;;;5.20;95115.00;;;;5090365;28;20532;-69
2022/04/08 02:38:54;;;;;;;3.27;2.97;;;;;5.40;95123.00;;;;5089006;28;21268;-70
2022/04/08 02:41:23;;;;;;;5.23;4.10;;;;;5.60;95115.00;;;;5090102;28;20457;-70
2022/04/08 02:43:51;;;;;;;4.10;3.70;;;;;5.50;95111.00;;;;5090115;28;20461;-70
2022/04/08 02:46:20;;;;;;;7.03;3.90;;;;;5.50;95112.00;;;;5090521;28;20444;-69
2022/04/08 02:48:50;;;;;;;5.83;3.93;;;;;5.30;95103.00;;;;5089609;28;20774;-69
2022/04/08 02:51:19;;;;;;;5.93;4.03;;;;;5.40;95092.00;;;;5089583;28;20536;-69
2022/04/08 02:53:49;;;;;;;4.80;3.30;;;;;5.30;95103.00;;;;5089648;28;20848;-70
2022/04/08 02:56:18;;;;;;;2.87;2.53;;;;;4.60;95104.00;;;;5090413;28;20437;-70
2022/04/08 02:58:48;;;;;;;3.87;2.93;;;;;3.90;95104.00;;;;5088259;28;20484;-69
2022/04/08 03:01:17;;;;;;;5.43;4.57;;;;;4.20;95112.00;;;;5090026;28;20463;-70
2022/04/08 03:03:46;;;;;;;5.03;3.87;;;;;4.60;95111.00;;;;5089852;28;20436;-69
2022/04/08 03:06:15;;;;;;;4.47;4.07;;;;;4.90;95120.00;;;;5090283;28;20436;-70
2022/04/08 03:08:44;;;;;;;4.70;4.20;;;;;4.80;95134.00;;;;5098184;28;20485;-69
2022/04/08 03:11:15;;;;;;;3.93;3.60;;;;;4.80;95140.00;;;;5109457;28;20547;-69
2022/04/08 03:13:44;;;;;;;5.90;4.73;;;;;4.70;95145.00;;;;5109983;28;20916;-70
2022/04/08 03:16:14;;;;;;;11.00;5.43;;;;;4.70;95147.00;;;;5110071;28;20437;-70
2022/04/08 03:18:46;;;;;;;4.20;3.80;;;;;4.80;95160.00;;;;5109527;28;21100;-70
2022/04/08 03:21:14;;;;;;;6.07;4.23;;;;;4.90;95167.00;;;;5090540;28;20482;-70
2022/04/08 03:23:44;;;;;;;4.17;3.87;;;;;5.10;95180.00;;;;5089666;28;20935;-70
2022/04/08 03:26:13;;;;;;;4.47;4.07;;;;;5.30;95180.00;;;;5109343;28;20432;-69
2022/04/08 03:28:43;;;;;;;5.70;4.33;;;;;5.60;95197.00;;;;5108273;28;20444;-70
2022/04/08 03:31:14;;;;;;;5.83;4.70;;;;;5.60;95195.00;;;;5098841;28;20461;-70
2022/04/08 03:33:43;;;;;;;4.60;4.07;;;;;5.60;95208.00;;;;5107503;28;20436;-70
2022/04/08 03:36:12;;;;;;;6.23;4.43;;;;;5.60;95211.00;;;;5102164;28;20206;-69
2022/04/08 03:38:41;;;;;;;4.53;4.13;;;;;5.20;95208.00;;;;5106586;28;20494;-70
2022/04/08 03:41:09;;;;;;;5.40;4.57;;;;;5.30;95193.00;;;;5105036;28;20448;-70
2022/04/08 03:43:38;;;;;;;5.30;4.63;;;;;5.50;95189.00;;;;5104918;28;20194;-70
2022/04/08 03:46:08;;;;;;;5.13;3.70;;;;;5.20;95197.00;;;;5104171;28;20433;-70
2022/04/08 03:48:42;;;;;;;5.17;4.63;;;;;5.10;95202.00;;;;5099541;28;20199;-70
2022/04/08 03:51:11;;;;;;;4.13;3.70;;;;;4.90;95197.00;;;;5089319;28;20449;-70
2022/04/08 03:53:39;;;;;;;5.43;4.80;;;;;5.10;95201.00;;;;5098896;28;20425;-69
2022/04/08 03:56:08;;;;;;;4.97;4.17;;;;;5.40;95204.00;;;;5107111;28;20453;-69
2022/04/08 03:58:37;;;;;;;5.77;4.90;;;;;5.20;95207.00;;;;5106922;28;20517;-70
2022/04/08 04:01:07;;;;;;;9.33;5.33;;;;;5.50;95208.00;;;;5105008;28;20480;-70
2022/04/08 04:03:36;;;;;;;6.20;5.33;;;;;5.60;95222.00;;;;5108101;28;20862;-70
2022/04/08 04:06:05;;;;;;;4.90;4.50;;;;;5.60;95212.00;;;;5115567;27;20430;-69
2022/04/08 04:08:34;;;;;;;5.63;4.87;;;;;5.40;95195.00;;;;5112013;27;20436;-69
2022/04/08 04:11:03;;;;;;;5.27;4.73;;;;;5.60;95193.00;;;;5114220;27;20468;-69
2022/04/08 04:13:32;;;;;;;5.10;4.60;;;;;5.80;95197.00;;;;5110287;28;20201;-69
2022/04/08 04:16:00;;;;;;;6.10;4.43;;;;;5.80;95214.00;;;;5109759;28;20888;-69
2022/04/08 04:18:31;;;;;;;4.70;4.30;;;;;5.20;95201.00;;;;5109787;27;20472;-69
2022/04/08 04:20:59;;;;;;;5.50;5.00;;;;;5.20;95210.00;;;;5107785;28;20279;-70
2022/04/08 04:23:28;;;;;;;11.70;5.73;;;;;5.60;95221.00;;;;5112498;27;20448;-69
2022/04/08 04:25:57;;;;;;;5.20;4.80;;;;;5.80;95228.00;;;;5107336;27;20309;-70
2022/04/08 04:28:28;;;;;;;6.40;5.73;;;;;5.90;95234.00;;;;5093082;28;20195;-70
2022/04/08 04:30:59;;;;;;;5.73;5.03;;;;;5.20;95232.00;;;;5116819;27;20455;-70
2022/04/08 04:33:29;;;;;;;4.73;4.30;;;;;5.10;95240.00;;;;5107110;27;20429;-70
2022/04/08 04:35:58;;;;;;;6.87;5.63;;;;;5.10;95239.00;;;;5092693;28;20456;-70
2022/04/08 04:38:27;;;;;;;6.40;4.97;;;;;5.10;95247.00;;;;5091648;28;20477;-70
2022/04/08 04:40:56;;;;;;;5.77;4.57;;;;;5.20;95249.00;;;;5092603;28;20449;-70
2022/04/08 04:43:25;;;;;;;7.27;5.03;;;;;5.40;95243.00;;;;5110820;27;20424;-70
2022/04/08 04:45:54;;;;;;;7.17;5.00;;;;;5.20;95248.00;;;;5109141;27;20432;-70
2022/04/08 04:48:23;;;;;;;5.93;4.47;;;;;5.50;95236.00;;;;5111001;27;20851;-71
2022/04/08 04:50:54;;;;;;;4.70;4.17;;;;;5.80;95232.00;;;;5109879;27;20447;-70
2022/04/08 04:53:23;;;;;;;6.27;5.40;;;;;5.90;95239.00;;;;5110891;27;20424;-69
2022/04/08 04:55:52;;;;;;;5.00;4.50;;;;;5.50;95230.00;;;;5112268;28;20429;-69
2022/04/08 04:58:21;;;;;;;7.23;5.00;;;;;5.00;95229.00;;;;5111090;28;20256;-69
2022/04/08 05:00:50;;;;;;;6.50;5.23;;;;;5.00;95239.00;;;;5113426;27;20445;-69
2022/04/08 05:03:19;;;;;;;6.80;5.60;;;;;5.40;95256.00;;;;5100499;27;20433;-69
2022/04/08 05:05:48;;;;;;;6.10;4.27;;;;;5.20;95270.00;;;;5107299;28;20493;-70
2022/04/08 05:08:18;;;;;;;9.60;5.60;;;;;5.10;95279.00;;;;5107862;28;20451;-70
2022/04/08 05:10:47;;;;;;;5.70;5.13;;;;;5.30;95284.00;;;;5111948;27;20440;-69
2022/04/08 05:13:16;;;;;;;5.20;4.67;;;;;5.70;95299.00;;;;5103106;28;20884;-69
2022/04/08 05:15:45;;;;;;;7.50;6.07;;;;;6.20;95302.00;;;;5110398;28;20432;-70
2022/04/08 05:18:14;;;;;;;7.80;5.63;;;;;6.40;95294.00;;;;5111460;28;20256;-70
2022/04/08 05:20:43;;;;;;;7.27;6.13;;;;;6.50;95295.00;;;;5097377;28;20632;-70
2022/04/08 05:23:12;;;;;;;6.77;6.07;;;;;6.30;95290.00;;;;5091637;28;20199;-70
2022/04/08 05:25:42;;;;;;;5.63;5.03;;;;;6.40;95303.00;;;;5095061;28;20307;-70
2022/04/08 05:28:12;;;;;;;9.33;5.77;;;;;6.60;95307.00;;;;5105398;27;20558;-70
2022/04/08 05:30:41;;;;;;;6.27;5.50;;;;;6.60;95318.00;;;;5097487;28;20210;-69
2022/04/08 05:33:12;;;;;;;5.57;5.07;;;;;6.70;95317.00;;;;5102890;28;20191;-70
2022/04/08 05:35:41;;;;;;;6.13;5.50;;;;;7.00;95330.00;;;;5098876;28;20191;-70
2022/04/08 05:38:10;;;;;;;7.50;5.00;;;;;6.70;95320.00;;;;5105429;28;20271;-70
2022/04/08 05:40:41;;;;;;;7.07;6.30;;;;;6.00;95322.00;;;;5103221;28;20226;-70
2022/04/08 05:43:10;;;;;;;6.77;5.73;;;;;6.40;95306.00;;;;5113892;27;20252;-70
2022/04/08 05:45:39;;;;;;;7.73;5.10;;;;;6.70;95316.00;;;;5105512;28;20620;-70
2022/04/08 05:48:08;;;;;;;5.60;4.93;;;;;6.80;95321.00;;;;5096482;28;20202;-70
2022/04/08 05:50:37;;;;;;;6.57;5.63;;;;;6.70;95327.00;;;;5106870;28;20210;-70
2022/04/08 05:53:06;;;;;;;6.07;5.13;;;;;6.80;95335.00;;;;5111400;27;20204;-70
2022/04/08 05:55:58;;;;;;;6.33;5.40;;;;;7.10;95334.00;;;;5100688;28;20213;-70
2022/04/08 05:58:27;;;;;;;6.67;5.67;;;;;7.50;95347.00;;;;5107286;28;20195;-70
2022/04/08 06:00:56;;;;;;;7.40;4.87;;;;;7.60;95344.00;;;;5100800;28;20233;-70
2022/04/08 06:03:25;;;;;;;7.03;5.67;;;;;7.30;95346.00;;;;5110956;28;20214;-70
2022/04/08 06:05:54;;;;;;;8.77;6.33;;;;;6.80;95353.00;;;;5111331;28;20209;-69
2022/04/08 06:08:23;;;;;;;8.70;7.17;;;;;6.90;95363.00;;;;5109845;28;20203;-70
2022/04/08 06:10:52;;;;;;;6.13;5.53;;;;;7.00;95365.00;;;;5110897;28;20211;-70
2022/04/08 06:13:24;;;;;;;6.67;6.07;;;;;7.20;95362.00;;;;5109632;27;20199;-70
2022/04/08 06:15:53;;;;;;;7.20;5.47;;;;;7.40;95369.00;;;;5091004;28;20196;-70
2022/04/08 06:18:22;;;;;;;7.17;5.63;;;;;7.70;95374.00;;;;5094287;28;20286;-69
2022/04/08 06:20:51;;;;;;;7.13;6.20;;;;;7.80;95377.00;;;;5109798;27;20661;-70
2022/04/08 06:23:40;;;;;;;6.17;5.23;;;;;7.80;95380.00;;;;5109472;27;20668;-70
2022/04/08 06:26:09;;;;;;;5.87;5.27;;;;;7.60;95383.00;;;;5089680;28;20230;-70
2022/04/08 06:28:39;;;;;;;6.80;6.07;;;;;8.00;95374.00;;;;5098564;28;20226;-70
2022/04/08 06:31:10;;;;;;;6.37;5.77;;;;;8.30;95384.00;;;;5092217;27;20219;-70
2022/04/08 06:33:41;;;;;;;6.20;5.53;;;;;8.70;95397.00;;;;5105924;27;20248;-70
2022/04/08 06:36:10;;;;;;;5.97;5.40;;;;;9.00;95410.00;;;;5104840;28;20204;-70
2022/04/08 06:38:40;;;;;;;11.90;6.37;;;;;9.40;95422.00;;;;5106009;28;20251;-70
2022/04/08 06:41:10;;;;;;;8.60;6.13;;;;;9.70;95429.00;;;;5104061;28;20222;-70
2022/04/08 06:43:40;;;;;;;7.40;6.70;;;;;10.00;95436.00;;;;5107920;28;20201;-70
2022/04/08 06:46:09;;;;;;;10.27;6.00;;;;;10.20;95437.00;;;;5103947;28;20225;-70
2022/04/08 06:48:38;;;;;;;8.87;5.53;;;;;10.40;95427.00;;;;5107167;27;20243;-70
2022/04/08 06:51:07;;;;;;;7.27;4.97;;;;;10.70;95433.00;;;;5106305;28;20727;-70
2022/04/08 06:53:37;;;;;;;11.20;6.27;;;;;10.80;95439.00;;;;5103604;28;20226;-70
2022/04/08 06:56:06;;;;;;;19.97;7.67;;;;;10.90;95445.00;;;;5107373;28;20230;-70
2022/04/08 06:58:39;;;;;;;26.53;6.40;;;;;10.90;95444.00;;;;5107087;28;20285;-70
2022/04/08 07:01:09;;;;;;;9.33;5.80;;;;;11.00;95438.00;;;;5109943;27;20234;-70
2022/04/08 07:03:38;;;;;;;7.40;6.07;;;;;11.00;95436.00;;;;5091332;28;20253;-70
2022/04/08 07:06:06;;;;;;;10.43;4.80;;;;;10.90;95446.00;;;;5106069;27;20198;-70
2022/04/08 07:08:35;;;;;;;8.97;5.37;;;;;11.00;95441.00;;;;5107478;28;20240;-70
2022/04/08 07:11:04;;;;;;;15.93;4.90;;;;;10.70;95439.00;;;;5105425;28;20221;-70
2022/04/08 07:13:33;;;;;;;5.63;4.50;;;;;11.10;95446.00;;;;5106610;28;20198;-70
2022/04/08 07:16:02;;;;;;;7.90;4.80;;;;;11.20;95448.00;;;;5106287;28;20209;-70
2022/04/08 07:18:32;;;;;;;11.30;5.13;;;;;10.90;95441.00;;;;5108063;28;20194;-70
2022/04/08 07:21:01;;;;;;;12.27;5.10;;;;;11.10;95449.00;;;;5107715;28;20309;-70
2022/04/08 07:23:30;;;;;;;7.97;5.03;;;;;11.60;95460.00;;;;5109469;28;20688;-70
2022/04/08 07:25:58;;;;;;;5.13;4.63;;;;;11.80;95464.00;;;;5109579;28;20680;-70
2022/04/08 07:28:27;;;;;;;9.90;4.20;;;;;12.00;95476.00;;;;5113624;28;20194;-70
2022/04/08 07:30:56;;;;;;;7.37;4.20;;;;;12.10;95492.00;;;;5109304;28;20234;-70
2022/04/08 07:33:25;;;;;;;7.07;4.60;;;;;12.20;95489.00;;;;5105033;28;20238;-70
2022/04/08 07:35:55;;;;;;;4.50;3.30;;;;;12.60;95489.00;;;;5090188;28;20207;-70
2022/04/08 07:38:24;;;;;;;7.50;4.60;;;;;12.80;95491.00;;;;5115876;27;20197;-70
2022/04/08 07:40:53;;;;;;;5.20;4.00;;;;;13.00;95489.00;;;;5100246;28;20222;-70
2022/04/08 07:43:21;;;;;;;11.53;4.13;;;;;13.00;95497.00;;;;5102492;28;20197;-70
2022/04/08 07:45:50;;;;;;;7.33;4.80;;;;;13.30;95501.00;;;;5100317;28;20198;-70
2022/04/08 07:48:19;;;;;;;5.63;4.17;;;;;13.60;95508.00;;;;5105913;28;20724;-70
2022/04/08 07:50:48;;;;;;;4.80;3.83;;;;;13.80;95510.00;;;;5122554;27;20255;-70
2022/04/08 07:53:18;;;;;;;5.90;3.83;;;;;14.00;95506.00;;;;5110886;28;20252;-70
2022/04/08 07:55:47;;;;;;;6.13;4.93;;;;;14.30;95516.00;;;;5107999;28;20226;-70
2022/04/08 07:58:16;;;;;;;6.30;4.33;;;;;14.40;95515.00;;;;5109509;28;20222;-70
2022/04/08 08:00:45;;;;;;;4.13;3.73;;;;;14.50;95515.00;;;;5102001;28;20227;-70
2022/04/08 08:03:15;;;;;;;7.83;3.87;;;13.40;99.90;14.80;95506.00;;;;5092584;28;20199;-70
2022/04/08 08:05:43;;;;;;;4.70;3.90;;;13.60;99.90;15.00;95498.00;;;;5093303;28;20567;-69
2022/04/08 08:08:12;;;;;;;4.13;3.73;;;13.80;99.90;15.30;95503.00;;;;5097361;28;20190;-70
2022/04/08 08:10:44;;;;;;;7.03;4.53;;;14.00;99.90;15.50;95498.00;;;;5113272;28;20215;-70
2022/04/08 08:13:13;;;;;;;4.33;3.93;;;14.20;99.90;15.60;95502.00;;;;5102866;28;20199;-70
2022/04/08 08:15:42;;;;;;;7.07;4.30;;;14.40;99.90;15.60;95501.00;;;;5099359;28;20198;-70
2022/04/08 08:18:11;;;;;;;5.03;4.37;;;14.50;99.90;15.40;95504.00;;;;5095562;28;20251;-69
2022/04/08 08:20:39;;;;;;;5.47;5.00;;;14.60;99.90;15.90;95514.00;;;;5110916;28;20219;-70
2022/04/08 08:23:08;;;;;;;5.87;4.00;;;14.80;99.90;15.70;95506.00;;;;5107412;27;20202;-70
2022/04/08 08:25:36;;;;;;;5.30;4.10;;;14.90;99.90;15.70;95514.00;;;;5099021;28;20257;-70
2022/04/08 08:28:07;;;;;;;5.57;4.63;;;14.90;99.90;16.10;95521.00;;;;5105491;27;20197;-70
2022/04/08 08:30:38;;;;;;;4.67;4.10;;;15.10;99.90;15.70;95512.00;;;;5112393;27;20214;-70
2022/04/08 08:33:07;;;;;;;5.03;4.40;;;15.20;99.70;15.90;95521.00;;;;5099602;28;20195;-70
2022/04/08 08:35:35;;;;;;;4.93;3.93;;;15.20;99.90;15.90;95518.00;;;;5112833;28;20191;-70
2022/04/08 08:38:04;;;;;;;8.13;4.77;;;15.20;99.50;16.10;95519.00;;;;5112739;27;20197;-70
2022/04/08 08:40:34;;;;;;;6.17;4.13;;;15.30;98.50;16.40;95539.00;;;;5099658;27;20219;-70
2022/04/08 08:43:09;;;;;;;7.50;4.90;;;15.40;98.70;16.80;95547.00;;;;5092421;28;20274;-70
2022/04/08 08:45:38;;;;;;;4.07;3.67;;;15.50;98.00;16.80;95545.00;;;;5092405;28;20223;-70
2022/04/08 08:48:06;;;;;;;4.73;3.80;;;15.70;97.20;16.90;95547.00;;;;5104793;27;20194;-71
2022/04/08 08:50:39;;;;;;;10.27;4.57;;;15.80;96.70;17.00;95531.00;;;;5105921;27;20233;-71
2022/04/08 08:53:08;;;;;;;6.10;4.37;;;15.90;96.00;16.10;95521.00;;;;5092100;28;20218;-70
2022/04/08 08:55:37;;;;;;;6.30;3.57;;;16.00;93.80;16.80;95525.00;;;;5112919;28;20187;-70
2022/04/08 08:58:06;;;;;;;4.73;3.97;;;15.90;93.70;17.20;95545.00;;;;5111380;28;20198;-70
2022/04/08 09:00:37;;;;;;;5.00;3.80;;;;;16.40;95538.00;;;;5112564;28;20219;-70
2022/04/08 09:03:06;;;;;;;7.90;4.93;;;;;16.70;95545.00;;;;5110477;28;20199;-71
2022/04/08 09:05:41;;;;;;;5.17;4.50;;;;;17.20;95541.00;;;;5108955;28;20256;-71
2022/04/08 09:08:11;;;;;;;5.57;4.03;;;16.40;92.50;17.40;95555.00;;;;5108038;28;20259;-71
2022/04/08 09:10:44;;;;;;;5.57;5.07;;;16.40;92.60;17.10;95564.00;;;;5110154;28;20408;-70
2022/04/08 09:13:20;;;;;;;5.03;4.57;;;16.40;92.20;17.10;95569.00;;;;5106711;28;20202;-70
2022/04/08 09:15:57;;;;;;;5.77;4.90;;;16.40;91.60;16.70;95559.00;;;;5099519;28;20281;-70
2022/04/08 09:18:30;;;;;;;5.17;4.47;;;16.20;91.10;17.00;95549.00;;;;5096702;28;20191;-70
2022/04/08 09:21:00;;;;;;;6.03;4.63;;;16.20;91.70;17.00;95548.00;;;;5105986;28;20222;-70
2022/04/08 09:23:31;;;;;;;5.93;4.57;;;16.20;92.20;16.10;95536.00;;;;5109600;28;20201;-70
2022/04/08 09:26:01;;;;;;;6.67;4.43;;;16.20;90.40;16.50;95551.00;;;;5108998;28;20194;-69
2022/04/08 09:28:35;;;;;;;5.97;4.60;;;16.00;90.50;16.20;95534.00;;;;5110895;28;21213;-69
2022/04/08 09:31:06;;;;;;;5.20;4.70;;;16.00;90.30;16.40;95534.00;;;;5105904;28;20225;-70
2022/04/08 09:33:34;;;;;;;5.60;4.90;;;15.90;90.70;16.80;95538.00;;;;5106348;27;20278;-70
2022/04/08 09:36:03;;;;;;;7.43;5.37;;;15.90;91.10;16.40;95534.00;;;;5091879;28;20268;-69
2022/04/08 09:38:32;;;;;;;6.43;4.90;;;15.90;90.40;16.60;95533.00;;;;5095381;28;20195;-69
2022/04/08 09:41:03;;;;;;;5.63;5.07;;;15.90;90.50;16.70;95519.00;;;;5105361;28;20223;-69
2022/04/08 09:43:33;;;;;;;5.77;4.80;;;15.80;90.30;16.40;95525.00;;;;5105834;28;20272;-69
2022/04/08 09:46:24;;;;;;;5.97;5.13;;;15.80;90.70;16.80;95525.00;;;;5091483;28;20199;-69
2022/04/08 09:48:53;;;;;;;6.60;4.80;;;15.90;91.10;16.70;95514.00;;;;5099527;28;20260;-69
2022/04/08 09:51:23;;;;;;;7.40;4.93;;;15.90;90.90;15.70;95509.00;;;;5105159;28;20222;-70
2022/04/08 09:53:57;;;;;;;6.07;5.47;;;15.90;90.10;15.70;95515.00;;;;5107083;28;20190;-70
2022/04/08 09:56:27;;;;;;;5.97;5.20;;;15.70;90.30;16.10;95511.00;;;;5106321;28;20198;-69
2022/04/08 09:59:03;;;;;;;7.33;5.50;;;15.60;91.20;16.10;95505.00;;;;5098278;28;20206;-70
2022/04/08 10:01:35;;;;;;;6.70;4.53;;;15.60;91.20;16.20;95510.00;;;;5090140;28;20233;-70
2022/04/08 10:04:06;;;;;;;8.57;5.27;;;15.60;91.50;16.10;95510.00;;;;5096975;28;20205;-69
2022/04/08 10:06:36;;;;;;;5.60;5.00;;;15.60;91.60;16.50;95505.00;;;;5110899;28;20199;-69
2022/04/08 10:09:07;;;;;;;6.30;5.50;;;15.60;91.40;16.30;95497.00;;;;5109720;28;20201;-69
2022/04/08 10:11:45;;;;;;;7.57;4.97;;;15.60;91.10;16.90;95495.00;;;;5102125;28;20202;-68
2022/04/08 10:14:37;;;;;;;5.87;4.40;;;15.70;91.40;17.10;95495.00;;;;5100651;28;20225;-69
2022/04/08 10:17:09;;;;;;;5.80;4.83;;;15.80;91.70;17.10;95498.00;;;;5099166;27;20218;-69
2022/04/08 10:19:38;;;;;;;8.07;6.17;;;16.00;91.40;17.10;95497.00;;;;5104866;28;20218;-69
2022/04/08 10:22:17;;;;;;;5.37;4.40;;;16.00;91.00;17.10;95503.00;;;;5107558;28;20211;-69
2022/04/08 10:24:53;;;;;;;5.57;4.43;;;16.10;90.90;16.90;95490.00;;;;5102874;28;20198;-68
2022/04/08 10:27:32;;;;;;;7.90;5.20;;;16.10;90.00;16.90;95491.00;;;;5105687;28;20239;-69
2022/04/08 10:30:01;;;;;;;6.27;4.77;;;16.50;89.80;16.40;95501.00;;;;5109802;27;20221;-69
2022/04/08 10:32:40;;;;;;;4.10;3.70;;;16.10;89.30;16.20;95493.00;;;;5112876;27;20204;-70
2022/04/08 10:35:17;;;;;;;5.00;4.53;;;15.90;88.20;16.60;95495.00;;;;5108250;28;20194;-70
2022/04/08 10:37:57;;;;;;;7.00;5.33;;;15.80;88.80;16.60;95493.00;;;;5096166;28;20226;-69
2022/04/08 10:40:34;;;;;;;6.47;4.83;;;15.80;88.80;16.50;95497.00;;;;5109636;28;20229;-69
2022/04/08 10:43:05;;;;;;;7.47;5.63;;;15.80;88.90;16.60;95490.00;;;;5109058;28;20206;-69
2022/04/08 10:45:33;;;;;;;7.53;4.87;;;15.80;90.00;16.40;95503.00;;;;5107333;28;20243;-68
2022/04/08 10:48:14;;;;;;;9.60;5.73;;;15.70;89.80;15.70;95501.00;;;;5100957;28;20198;-70
2022/04/08 10:50:43;;;;;;;6.10;5.33;;;15.60;88.80;15.80;95497.00;;;;5102956;28;20222;-69
2022/04/08 10:53:14;;;;;;;7.03;6.33;;;15.50;89.40;16.00;95485.00;;;;5100769;28;20281;-69
2022/04/08 10:55:50;;;;;;;6.43;5.77;;;15.40;90.10;16.30;95472.00;;;;5094863;28;20184;-69
2022/04/08 10:58:31;;;;;;;7.60;5.70;;;15.50;90.30;16.50;95476.00;;;;5102304;28;20202;-70
2022/04/08 11:01:00;;;;;;;6.63;6.00;;;15.50;90.60;16.50;95482.00;;;;5098434;28;20225;-69
2022/04/08 11:03:30;;;;;;;6.20;5.47;;;15.60;90.40;16.80;95477.00;;;;5107782;28;20214;-69
2022/04/08 11:05:59;;;;;;;7.07;6.37;;;15.70;90.90;17.10;95489.00;;;;5106745;28;20186;-69
2022/04/08 11:08:27;;;;;;;6.63;5.20;;;15.80;91.30;17.00;95480.00;;;;5097139;28;20200;-70
2022/04/08 11:11:00;;;;;;;6.23;5.63;;;15.90;91.30;17.00;95473.00;;;;5107111;28;20214;-69
2022/04/08 11:13:29;;;;;;;8.57;6.70;;;16.00;91.20;17.00;95476.00;;;;5103540;28;20190;-69
2022/04/08 11:16:01;;;;;;;9.63;7.40;;;16.10;90.90;17.20;95466.00;;;;5106636;28;20202;-69
2022/04/08 11:18:31;;;;;;;10.20;6.10;;;16.20;90.70;17.20;95472.00;;;;5113325;27;20225;-69
2022/04/08 11:21:01;;;;;;;8.93;6.27;;;16.20;90.60;16.90;95464.00;;;;5095850;28;20265;-70
2022/04/08 11:23:33;;;;;;;6.17;5.57;;;16.30;90.30;16.80;95462.00;;;;5104568;28;20230;-70
2022/04/08 11:26:12;;;;;;;6.10;5.30;;;16.20;90.60;16.80;95477.00;;;;5103211;28;20191;-69
2022/04/08 11:28:40;;;;;;;9.80;5.90;;;16.20;90.80;16.70;95470.00;;;;5104687;28;20194;-69
2022/04/08 11:31:23;;;;;;;6.70;6.00;;;16.10;90.40;16.90;95452.00;;;;5099714;28;20293;-69
2022/04/08 11:33:53;;;;;;;6.07;5.47;;;16.10;90.70;17.00;95442.00;;;;5107251;28;20259;-70
2022/04/08 11:36:24;;;;;;;8.37;5.73;;;16.10;91.20;17.00;95447.00;;;;5100125;28;20203;-70
2022/04/08 11:38:53;;;;;;;6.70;6.00;;;16.10;90.90;17.30;95449.00;;;;5103134;28;20199;-69
2022/04/08 11:41:32;;;;;;;8.43;5.17;;;16.10;91.10;17.50;95441.00;;;;5113825;28;20206;-69
2022/04/08 11:44:02;;;;;;;9.13;5.73;;;16.30;91.30;17.60;95432.00;;;;5105904;28;20228;-70
2022/04/08 11:46:32;;;;;;;6.30;5.53;;;16.40;91.10;17.70;95433.00;;;;5107279;28;20198;-70
2022/04/08 11:49:05;;;;;;;6.43;5.20;;;16.50;90.70;17.60;95431.00;;;;5105600;28;20198;-69
2022/04/08 11:51:34;;;;;;;7.40;6.23;;;16.60;90.40;17.70;95431.00;;;;5103627;28;20267;-69
2022/04/08 11:54:04;;;;;;;9.03;7.63;;;16.70;90.30;16.70;95414.00;;;;5099925;28;20198;-69
2022/04/08 11:56:33;;;;;;;10.50;7.90;;;16.70;88.20;16.90;95410.00;;;;5104678;28;20218;-70
2022/04/08 11:59:05;;;;;;;8.73;7.27;;;16.60;88.00;16.90;95407.00;;;;5108198;28;20289;-69
2022/04/08 12:01:37;;;;;;;10.40;7.70;;;16.50;87.30;16.20;95392.00;;;;5102071;28;20197;-70
2022/04/08 12:04:10;;;;;;;8.70;7.43;;;16.30;88.90;16.60;95393.00;;;;5098922;28;20249;-70
2022/04/08 12:06:41;;;;;;;9.83;7.77;;;16.20;89.00;16.90;95388.00;;;;5104148;28;20281;-70